Time;durP1;ratioP1;P1;durP2;ratioP2;P2;SDS_P1;SDS_P2;PMS_P1;PMS_P2;Temp;Humidity;BMP_temperature;BMP_pressure;BME280_temperature;BME280_humidity;BME280_pressure;Samples;Min_cycle;Max_cycle;Signal;HPM_P1;HPM_P2
2022/08/05 00:00:16;;;;;;;9.00;6.10;;;18.20;99.90;;;;;;4821958;29;20063;-51
2022/08/05 00:02:42;;;;;;;8.52;6.28;;;18.30;99.90;;;;;;4822123;29;20018;-51
2022/08/05 00:05:08;;;;;;;17.35;6.40;;;18.30;99.90;;;;;;4823954;29;20126;-53
2022/08/05 00:07:33;;;;;;;13.57;6.90;;;18.30;99.90;;;;;;4825194;29;20704;-53
2022/08/05 00:09:59;;;;;;;11.13;6.18;;;18.20;99.90;;;;;;4825266;29;20110;-55
2022/08/05 00:12:24;;;;;;;18.02;6.65;;;18.20;99.90;;;;;;4825645;29;20050;-53
2022/08/05 00:14:50;;;;;;;13.95;6.20;;;18.10;99.90;;;;;;4825550;29;20034;-53
2022/08/05 00:17:16;;;;;;;15.00;6.60;;;18.00;99.90;;;;;;4825691;29;20547;-52
2022/08/05 00:19:41;;;;;;;16.90;6.40;;;18.10;99.90;;;;;;4825697;29;20596;-51
2022/08/05 00:22:07;;;;;;;10.23;5.80;;;18.00;99.90;;;;;;4825749;29;20121;-50
2022/08/05 00:24:33;;;;;;;11.77;6.47;;;18.00;99.90;;;;;;4826011;29;20041;-52
2022/08/05 00:27:00;;;;;;;10.10;6.60;;;17.90;99.90;;;;;;4825630;29;20440;-52
2022/08/05 00:29:26;;;;;;;10.52;5.95;;;18.00;99.90;;;;;;4825682;29;20035;-51
2022/08/05 00:31:53;;;;;;;13.57;6.45;;;18.00;99.90;;;;;;4825373;29;20407;-50
2022/08/05 00:34:19;;;;;;;11.35;6.22;;;17.90;99.90;;;;;;4825917;29;20036;-52
2022/08/05 00:36:44;;;;;;;13.63;5.43;;;17.90;99.90;;;;;;4825570;29;20031;-51
2022/08/05 00:39:11;;;;;;;12.55;6.85;;;17.80;99.90;;;;;;4825208;29;20099;-51
2022/08/05 00:41:37;;;;;;;8.82;6.15;;;17.80;99.90;;;;;;4825279;29;20031;-50
2022/08/05 00:44:03;;;;;;;6.78;5.95;;;17.80;99.90;;;;;;4825030;29;20026;-52
2022/08/05 00:46:29;;;;;;;10.55;6.22;;;17.80;99.90;;;;;;4824147;29;20053;-53
2022/08/05 00:48:55;;;;;;;12.07;6.30;;;17.70;99.90;;;;;;4825196;29;20035;-51
2022/08/05 00:51:21;;;;;;;8.10;5.57;;;17.70;99.90;;;;;;4825377;29;20039;-52
2022/08/05 00:53:47;;;;;;;8.27;6.47;;;17.70;99.90;;;;;;4825650;29;20034;-52
2022/08/05 00:56:15;;;;;;;12.00;5.95;;;17.70;99.90;;;;;;4825126;29;20049;-53
2022/08/05 00:58:41;;;;;;;9.88;5.85;;;17.70;99.90;;;;;;4824991;29;20044;-52
2022/08/05 01:01:08;;;;;;;7.63;6.45;;;17.70;99.90;;;;;;4824997;29;20129;-50
2022/08/05 01:03:34;;;;;;;14.45;6.07;;;17.60;99.90;;;;;;4825376;29;20110;-51
2022/08/05 01:05:59;;;;;;;9.18;6.75;;;17.60;99.90;;;;;;4824782;29;20130;-54
2022/08/05 01:08:25;;;;;;;10.85;5.47;;;17.60;99.90;;;;;;4824997;29;20034;-51
2022/08/05 01:10:52;;;;;;;7.75;5.70;;;17.50;99.90;;;;;;4824730;29;20046;-53
2022/08/05 01:13:42;;;;;;;12.00;6.05;;;17.50;99.90;;;;;;4823390;29;20554;-51
2022/08/05 01:16:20;;;;;;;7.25;5.78;;;17.50;99.90;;;;;;4824071;29;20134;-53
2022/08/05 01:18:53;;;;;;;7.78;5.70;;;17.40;99.90;;;;;;4806895;29;20525;-50
2022/08/05 01:21:36;;;;;;;18.42;6.57;;;17.30;99.90;;;;;;4815321;29;20391;-51
2022/08/05 01:24:05;;;;;;;11.52;5.93;;;17.20;99.90;;;;;;4824989;29;20106;-51
2022/08/05 01:26:46;;;;;;;14.48;6.15;;;17.30;99.90;;;;;;4824723;29;20109;-52
2022/08/05 01:29:28;;;;;;;18.50;6.78;;;17.20;99.90;;;;;;4824747;29;20026;-53
2022/08/05 01:32:01;;;;;;;11.80;6.03;;;17.20;99.90;;;;;;4824619;29;20045;-54
2022/08/05 01:34:59;;;;;;;9.35;6.57;;;17.20;99.90;;;;;;4823464;29;20034;-52
2022/08/05 01:37:38;;;;;;;18.40;6.75;;;17.20;99.90;;;;;;4821312;29;20074;-52
2022/08/05 01:40:06;;;;;;;12.30;6.13;;;17.30;99.90;;;;;;4823825;29;20034;-52
2022/08/05 01:42:33;;;;;;;9.43;6.45;;;17.20;99.90;;;;;;4824192;29;20027;-51
2022/08/05 01:45:00;;;;;;;13.52;6.10;;;17.20;99.90;;;;;;4824301;29;20079;-52
2022/08/05 01:47:28;;;;;;;13.07;6.30;;;17.20;99.90;;;;;;4824520;29;20035;-50
2022/08/05 01:49:56;;;;;;;12.00;6.20;;;17.10;99.90;;;;;;4823010;29;20079;-52
2022/08/05 01:52:23;;;;;;;12.82;5.35;;;17.10;99.90;;;;;;4823128;29;20038;-52
2022/08/05 01:54:52;;;;;;;19.30;5.63;;;17.20;99.90;;;;;;4822734;29;20471;-53
2022/08/05 01:57:27;;;;;;;20.60;5.85;;;17.10;99.90;;;;;;4824398;29;20079;-52
2022/08/05 01:59:59;;;;;;;13.38;5.70;;;17.00;99.90;;;;;;4823749;29;20058;-50
2022/08/05 02:02:27;;;;;;;9.10;5.43;;;17.00;99.90;;;;;;4824151;29;20041;-51
2022/08/05 02:04:58;;;;;;;7.53;5.97;;;17.00;99.90;;;;;;4823139;29;20022;-53
2022/08/05 02:07:24;;;;;;;16.65;6.70;;;17.00;99.90;;;;;;4823958;29;20031;-50
2022/08/05 02:09:50;;;;;;;8.75;5.47;;;17.00;99.90;;;;;;4823620;29;20041;-50
2022/08/05 02:12:31;;;;;;;10.23;6.38;;;17.00;99.90;;;;;;4824083;29;20038;-51
2022/08/05 02:15:12;;;;;;;9.63;5.72;;;17.00;99.90;;;;;;4824016;29;20058;-52
2022/08/05 02:17:44;;;;;;;12.55;6.03;;;17.00;99.90;;;;;;4824033;29;20383;-51
2022/08/05 02:20:17;;;;;;;29.10;7.10;;;17.00;99.90;;;;;;4823623;29;20034;-50
2022/08/05 02:22:46;;;;;;;9.77;5.70;;;16.90;99.90;;;;;;4823987;29;20037;-52
2022/08/05 02:25:18;;;;;;;8.55;5.60;;;16.90;99.90;;;;;;4822353;29;20035;-50
2022/08/05 02:27:47;;;;;;;14.98;6.57;;;16.90;99.90;;;;;;4823893;29;20045;-51
2022/08/05 02:30:17;;;;;;;12.60;5.85;;;16.90;99.90;;;;;;4823762;29;20038;-52
2022/08/05 02:32:48;;;;;;;17.10;6.53;;;16.80;99.90;;;;;;4822575;29;20042;-51
2022/08/05 02:35:19;;;;;;;12.88;5.43;;;16.80;99.90;;;;;;4823353;29;20125;-52
2022/08/05 02:37:46;;;;;;;14.77;6.22;;;16.80;99.90;;;;;;4823606;29;20034;-54
2022/08/05 02:40:13;;;;;;;13.27;6.25;;;16.80;99.90;;;;;;4822857;29;20034;-50
2022/08/05 02:42:41;;;;;;;16.48;5.90;;;16.70;99.90;;;;;;4823590;29;20041;-51
2022/08/05 02:45:08;;;;;;;14.45;6.97;;;16.70;99.90;;;;;;4823412;29;20129;-51
2022/08/05 02:47:35;;;;;;;17.33;6.10;;;16.70;99.90;;;;;;4823470;29;20023;-51
2022/08/05 02:50:03;;;;;;;7.95;5.38;;;16.70;99.90;;;;;;4823241;29;20038;-51
2022/08/05 02:52:30;;;;;;;7.95;5.68;;;16.70;99.90;;;;;;4823349;29;20039;-52
2022/08/05 02:54:57;;;;;;;10.32;5.85;;;16.60;99.90;;;;;;4823095;29;20117;-51
2022/08/05 02:57:24;;;;;;;12.15;7.03;;;16.60;99.90;;;;;;4823208;29;20522;-53
2022/08/05 02:59:50;;;;;;;13.10;6.15;;;16.50;99.90;;;;;;4823453;29;20102;-50
2022/08/05 03:02:25;;;;;;;14.88;6.13;;;16.50;99.90;;;;;;4823289;29;20034;-52
2022/08/05 03:04:52;;;;;;;17.13;7.15;;;16.50;99.90;;;;;;4823458;29;20039;-55
2022/08/05 03:07:19;;;;;;;11.73;6.00;;;16.40;99.90;;;;;;4823287;29;20041;-54
2022/08/05 03:09:45;;;;;;;10.18;6.28;;;16.40;99.90;;;;;;4823140;29;20456;-50
2022/08/05 03:12:32;;;;;;;17.48;6.10;;;16.40;99.90;;;;;;4822707;29;20176;-51
2022/08/05 03:14:57;;;;;;;9.48;5.20;;;16.40;99.90;;;;;;4823249;29;20023;-49
2022/08/05 03:17:23;;;;;;;14.65;6.57;;;16.50;99.90;;;;;;4823394;29;20109;-54
2022/08/05 03:19:49;;;;;;;11.85;6.25;;;16.50;99.90;;;;;;4822904;29;20400;-55
2022/08/05 03:22:14;;;;;;;20.48;6.13;;;16.40;99.90;;;;;;4823025;29;20022;-51
2022/08/05 03:24:45;;;;;;;14.05;7.00;;;16.40;99.90;;;;;;4823367;29;20033;-51
2022/08/05 03:27:11;;;;;;;11.65;6.30;;;16.40;99.90;;;;;;4822445;29;20045;-52
2022/08/05 03:29:39;;;;;;;8.50;5.88;;;16.40;99.90;;;;;;4822902;29;20492;-53
2022/08/05 03:32:07;;;;;;;18.08;7.13;;;16.40;99.90;;;;;;4821686;29;20022;-54
2022/08/05 03:34:33;;;;;;;9.23;6.47;;;16.40;99.90;;;;;;4823088;29;20038;-51
2022/08/05 03:37:01;;;;;;;8.13;6.55;;;16.40;99.90;;;;;;4822580;29;20041;-51
2022/08/05 03:39:27;;;;;;;14.10;6.05;;;16.30;99.90;;;;;;4822319;29;20034;-51
2022/08/05 03:41:53;;;;;;;7.82;6.43;;;16.30;99.90;;;;;;4822875;29;20030;-54
2022/08/05 03:44:19;;;;;;;14.02;7.40;;;16.30;99.90;;;;;;4823044;29;20033;-52
2022/08/05 03:46:44;;;;;;;13.90;6.88;;;16.30;99.90;;;;;;4823029;29;20467;-52
2022/08/05 03:49:10;;;;;;;11.40;6.10;;;16.30;99.90;;;;;;4822537;29;20389;-51
2022/08/05 03:51:42;;;;;;;12.02;6.40;;;16.30;99.90;;;;;;4822698;29;20486;-52
2022/08/05 03:54:27;;;;;;;11.13;6.15;;;16.30;99.90;;;;;;4822443;29;20042;-53
2022/08/05 03:56:54;;;;;;;9.18;6.55;;;16.30;99.90;;;;;;4822636;29;20027;-51
2022/08/05 03:59:24;;;;;;;11.30;6.53;;;16.30;99.90;;;;;;4822376;29;20475;-52
2022/08/05 04:01:54;;;;;;;13.13;6.22;;;16.30;99.90;;;;;;4822658;29;20087;-50
2022/08/05 04:04:20;;;;;;;12.02;6.40;;;16.30;99.90;;;;;;4822376;29;20451;-49
2022/08/05 04:06:47;;;;;;;12.60;6.00;;;16.40;99.90;;;;;;4822746;29;20083;-52
2022/08/05 04:09:14;;;;;;;11.73;5.85;;;16.40;99.90;;;;;;4822320;29;20037;-52
2022/08/05 04:11:40;;;;;;;11.70;7.47;;;16.40;99.90;;;;;;4822649;29;20118;-53
2022/08/05 04:14:08;;;;;;;9.35;5.88;;;16.40;99.90;;;;;;4822076;29;20578;-53
2022/08/05 04:16:35;;;;;;;12.65;6.20;;;16.40;99.90;;;;;;4822587;29;20054;-54
2022/08/05 04:19:02;;;;;;;8.30;7.32;;;16.50;99.90;;;;;;4822301;29;20030;-49
2022/08/05 04:21:28;;;;;;;9.32;6.55;;;16.50;99.90;;;;;;4822566;29;20057;-51
2022/08/05 04:23:54;;;;;;;16.13;7.10;;;16.60;99.90;;;;;;4822133;29;20454;-50
2022/08/05 04:26:19;;;;;;;13.25;7.00;;;16.60;99.90;;;;;;4822540;29;20037;-54
2022/08/05 04:28:45;;;;;;;8.18;6.65;;;16.60;99.90;;;;;;4822283;29;20035;-51
2022/08/05 04:31:11;;;;;;;11.63;7.47;;;16.70;99.90;;;;;;4821028;29;20031;-49
2022/08/05 04:33:37;;;;;;;11.60;6.35;;;16.80;99.90;;;;;;4822171;29;20034;-51
2022/08/05 04:36:02;;;;;;;13.27;7.30;;;16.90;99.90;;;;;;4821980;29;20062;-50
2022/08/05 04:38:28;;;;;;;11.82;6.32;;;17.00;99.90;;;;;;4822059;29;20030;-52
2022/08/05 04:40:54;;;;;;;9.35;6.38;;;17.00;99.90;;;;;;4816025;29;20103;-53
2022/08/05 04:43:19;;;;;;;10.13;6.53;;;17.10;99.90;;;;;;4821458;29;20491;-53
2022/08/05 04:45:45;;;;;;;10.48;6.78;;;17.20;99.90;;;;;;4821795;29;20034;-52
2022/08/05 04:48:12;;;;;;;8.38;6.38;;;17.30;99.90;;;;;;4821579;29;20467;-53
2022/08/05 04:50:43;;;;;;;10.02;6.55;;;17.40;99.90;;;;;;4821893;29;20035;-49
2022/08/05 04:53:11;;;;;;;10.05;6.60;;;17.50;99.90;;;;;;4825133;29;20030;-52
2022/08/05 04:55:37;;;;;;;12.15;6.63;;;17.60;99.90;;;;;;4825300;29;20360;-50
2022/08/05 04:58:08;;;;;;;13.27;6.13;;;17.70;99.90;;;;;;4825226;29;20367;-52
2022/08/05 05:00:35;;;;;;;11.43;6.55;;;17.70;99.90;;;;;;4819033;29;20031;-49
2022/08/05 05:03:01;;;;;;;9.57;7.00;;;17.70;99.90;;;;;;4809493;29;20015;-52
2022/08/05 05:05:28;;;;;;;6.35;5.75;;;17.80;99.90;;;;;;4807782;29;20023;-51
2022/08/05 05:08:02;;;;;;;11.70;6.05;;;17.90;99.90;;;;;;4822567;29;20018;-51
2022/08/05 05:10:32;;;;;;;6.07;4.80;;;18.20;99.90;;;;;;4822815;29;20033;-50
2022/08/05 05:12:58;;;;;;;9.93;6.07;;;18.30;99.90;;;;;;4822498;29;20098;-51
2022/08/05 05:15:25;;;;;;;8.45;5.90;;;18.30;99.90;;;;;;4819650;29;20038;-53
2022/08/05 05:17:51;;;;;;;7.03;6.32;;;18.30;99.90;;;;;;4819405;29;20048;-51
2022/08/05 05:20:16;;;;;;;12.13;7.00;;;18.40;99.90;;;;;;4805993;29;20436;-50
2022/08/05 05:22:42;;;;;;;10.55;6.30;;;18.40;99.90;;;;;;4805977;29;20029;-50
2022/08/05 05:25:08;;;;;;;12.10;6.88;;;18.60;99.90;;;;;;4805795;29;20027;-50
2022/08/05 05:27:35;;;;;;;9.30;7.00;;;18.70;99.90;;;;;;4805900;29;20494;-52
2022/08/05 05:30:01;;;;;;;10.15;6.35;;;18.80;99.90;;;;;;4805648;29;20412;-50
2022/08/05 05:32:27;;;;;;;12.25;6.90;;;19.00;99.90;;;;;;4805877;29;20048;-52
2022/08/05 05:34:53;;;;;;;8.15;7.35;;;19.10;99.90;;;;;;4806067;29;20026;-51
2022/08/05 05:37:19;;;;;;;14.82;6.57;;;19.30;99.90;;;;;;4805622;29;20031;-50
2022/08/05 05:39:44;;;;;;;18.88;7.00;;;19.50;99.90;;;;;;4805566;29;20053;-52
2022/08/05 05:42:10;;;;;;;11.02;6.35;;;19.50;99.90;;;;;;4805414;29;20073;-52
2022/08/05 05:44:36;;;;;;;12.57;6.93;;;19.70;99.90;;;;;;4814356;29;20038;-50
2022/08/05 05:47:02;;;;;;;16.60;6.65;;;19.80;99.90;;;;;;4823197;29;20513;-50
2022/08/05 05:49:27;;;;;;;9.98;6.78;;;20.10;99.90;;;;;;4822187;29;20530;-52
2022/08/05 05:51:54;;;;;;;8.75;6.07;;;20.30;99.90;;;;;;4821927;29;20031;-52
2022/08/05 05:54:20;;;;;;;6.47;5.72;;;20.40;99.90;;;;;;4823339;29;20030;-50
2022/08/05 05:56:46;;;;;;;6.78;6.15;;;20.50;99.90;;;;;;4823112;29;20041;-52
2022/08/05 05:59:12;;;;;;;12.48;6.63;;;20.60;99.90;;;;;;4823116;29;20031;-50
2022/08/05 06:01:39;;;;;;;6.97;6.28;;;20.70;99.90;;;;;;4822855;29;20035;-51
2022/08/05 06:04:09;;;;;;;7.55;5.25;;;20.80;99.90;;;;;;4823162;29;20049;-52
2022/08/05 06:06:35;;;;;;;6.72;6.03;;;20.90;99.90;;;;;;4823166;29;20078;-50
2022/08/05 06:09:03;;;;;;;8.15;5.95;;;21.00;99.90;;;;;;4822497;29;20035;-51
2022/08/05 06:11:29;;;;;;;6.43;5.00;;;21.20;99.90;;;;;;4823167;29;20166;-50
2022/08/05 06:13:55;;;;;;;6.43;5.80;;;21.30;99.90;;;;;;4822952;29;20145;-50
2022/08/05 06:16:20;;;;;;;14.38;6.50;;;21.50;99.90;;;;;;4823015;29;20379;-52
2022/08/05 06:18:46;;;;;;;6.95;5.22;;;21.70;99.90;;;;;;4823234;29;20054;-51
2022/08/05 06:21:12;;;;;;;8.65;4.93;;;21.80;99.90;;;;;;4822647;29;20027;-52
2022/08/05 06:23:37;;;;;;;7.82;5.55;;;22.00;99.90;;;;;;4822613;29;20034;-52
2022/08/05 06:26:03;;;;;;;6.15;4.97;;;22.10;99.90;;;;;;4822705;29;20045;-53
2022/08/05 06:28:29;;;;;;;8.38;6.03;;;22.30;99.90;;;;;;4822809;29;20034;-51
2022/08/05 06:30:54;;;;;;;6.07;5.38;;;22.40;99.90;;;;;;4822569;29;20034;-53
2022/08/05 06:33:20;;;;;;;7.70;6.07;;;22.50;99.90;;;;;;4822745;29;20034;-51
2022/08/05 06:35:46;;;;;;;13.45;5.53;;;22.60;99.90;;;;;;4822746;29;20037;-50
2022/08/05 06:38:11;;;;;;;5.88;5.30;;;22.80;99.90;;;;;;4820750;29;20368;-52
2022/08/05 06:40:38;;;;;;;8.93;5.63;;;23.00;99.90;;;;;;4822213;29;20035;-51
2022/08/05 06:43:03;;;;;;;10.18;5.05;;;23.10;99.90;;;;;;4822192;29;20029;-52
2022/08/05 06:45:29;;;;;;;8.63;5.18;;;23.30;99.90;;;;;;4822970;29;20125;-51
2022/08/05 06:48:03;;;;;;;11.55;4.75;;;23.30;99.90;;;;;;4822541;29;20026;-50
2022/08/05 06:50:29;;;;;;;9.55;5.95;;;23.40;99.90;;;;;;4822317;29;20079;-54
2022/08/05 06:52:55;;;;;;;15.80;4.85;;;23.60;99.90;;;;;;4822281;29;20445;-54
2022/08/05 06:55:20;;;;;;;10.13;5.03;;;23.80;99.90;;;;;;4822541;29;20026;-51
2022/08/05 06:57:46;;;;;;;7.05;5.15;;;23.90;99.90;;;;;;4821072;29;20503;-54
2022/08/05 07:00:12;;;;;;;9.65;5.05;;;24.00;99.90;;;;;;4822380;29;20549;-52
2022/08/05 07:02:42;;;;;;;10.38;5.10;;;24.10;99.90;;;;;;4821017;29;20030;-54
2022/08/05 07:05:09;;;;;;;8.15;5.00;;;24.20;99.90;;;;;;4822120;29;20049;-50
2022/08/05 07:07:35;;;;;;;8.20;4.47;;;24.30;99.90;;;;;;4820784;29;20564;-52
2022/08/05 07:10:00;;;;;;;9.80;4.85;;;24.40;99.90;;;;;;4822104;29;20105;-51
2022/08/05 07:17:54;;;;;;;7.93;4.28;;;24.80;99.90;;;;;;4822064;29;20045;-51
2022/08/05 07:20:20;;;;;;;10.98;4.22;;;25.00;99.90;;;;;;4821835;29;20479;-54
2022/08/05 07:22:46;;;;;;;10.93;5.38;;;25.10;99.90;;;;;;4822177;29;20462;-50
2022/08/05 07:25:11;;;;;;;10.93;4.95;;;25.10;99.90;;;;;;4821903;29;20031;-53
2022/08/05 07:27:37;;;;;;;5.63;4.65;;;25.20;99.90;;;;;;4821920;29;20559;-51
2022/08/05 07:30:03;;;;;;;15.35;4.57;;;25.40;99.90;;;;;;4821847;29;20101;-50
2022/08/05 07:32:33;;;;;;;10.48;4.47;;;25.40;99.90;;;;;;4821945;29;20027;-50
2022/08/05 07:34:59;;;;;;;6.10;4.95;;;25.50;99.90;;;;;;4821605;29;20044;-52
2022/08/05 07:37:24;;;;;;;13.25;5.03;;;25.60;99.90;;;;;;4822005;29;20113;-52
2022/08/05 07:39:50;;;;;;;9.77;4.57;;;25.70;99.90;;;;;;4821802;29;20046;-55
2022/08/05 07:42:16;;;;;;;10.02;4.28;;;25.90;99.90;;;;;;4821810;29;20041;-53
2022/08/05 07:44:41;;;;;;;20.33;4.93;;;26.10;99.90;;;;;;4821778;29;20686;-52
2022/08/05 07:47:07;;;;;;;12.98;4.13;;;26.10;99.90;;;;;;4821571;29;20125;-50
2022/08/05 07:49:33;;;;;;;7.70;4.95;;;26.20;99.90;;;;;;4821538;29;20034;-51
2022/08/05 07:51:59;;;;;;;9.27;4.85;;;26.30;99.90;;;;;;4821567;29;20082;-52
2022/08/05 07:54:27;;;;;;;12.30;4.93;;;26.50;99.90;;;;;;4821714;29;20034;-53
2022/08/05 07:56:53;;;;;;;4.55;4.10;;;26.60;99.90;;;;;;4821585;29;20079;-51
2022/08/05 07:59:19;;;;;;;9.77;4.97;;;26.60;99.90;;;;;;4821507;29;20329;-51
2022/08/05 08:01:44;;;;;;;5.57;4.45;;;26.70;99.90;;;;;;4821611;29;20117;-51
2022/08/05 08:04:10;;;;;;;7.85;4.13;;;26.80;99.90;;;;;;4821179;29;20121;-51
2022/08/05 08:06:36;;;;;;;10.02;4.50;;;26.90;99.90;;;;;;4821476;29;20026;-52
2022/08/05 08:09:02;;;;;;;4.35;3.88;;;27.00;99.90;;;;;;4821215;29;20062;-50
2022/08/05 08:11:28;;;;;;;7.53;3.85;;;27.10;99.90;;;;;;4821410;29;20035;-51
2022/08/05 08:13:54;;;;;;;6.03;4.10;;;27.00;98.50;;;;;;4821259;29;20137;-51
2022/08/05 08:16:19;;;;;;;6.88;4.15;;;27.10;99.70;;;;;;4821327;29;20114;-51
2022/08/05 08:18:45;;;;;;;4.35;3.92;;;27.40;99.40;;;;;;4821316;29;20034;-55
2022/08/05 08:21:11;;;;;;;12.27;4.78;;;27.60;99.10;;;;;;4821275;29;20411;-53
2022/08/05 08:23:37;;;;;;;7.40;4.13;;;27.80;99.50;;;;;;4819949;29;20057;-52
2022/08/05 08:26:02;;;;;;;8.77;4.65;;;27.90;99.60;;;;;;4823303;29;20031;-52
2022/08/05 08:28:28;;;;;;;6.30;3.95;;;28.00;99.60;;;;;;4825084;29;20027;-53
2022/08/05 08:30:54;;;;;;;5.25;3.90;;;27.90;97.90;;;;;;4824637;29;20029;-51
2022/08/05 08:33:20;;;;;;;13.20;4.45;;;28.20;99.00;;;;;;4824710;29;20477;-51
2022/08/05 08:35:46;;;;;;;6.22;4.55;;;28.20;97.30;;;;;;4824529;29;20034;-51
2022/08/05 08:38:13;;;;;;;4.93;4.43;;;28.20;98.90;;;;;;4824567;29;20034;-50
2022/08/05 08:40:39;;;;;;;9.95;4.43;;;28.50;98.80;;;;;;4824465;29;20054;-54
2022/08/05 08:43:05;;;;;;;7.03;3.83;;;28.70;96.60;;;;;;4824395;29;20057;-51
2022/08/05 08:45:31;;;;;;;9.85;4.22;;;28.80;98.10;;;;;;4824301;29;20019;-50
2022/08/05 08:48:07;;;;;;;3.60;3.25;;;28.90;97.70;;;;;;4823953;29;20026;-51
2022/08/05 08:50:37;;;;;;;4.00;3.67;;;29.10;95.90;;;;;;4824414;29;20023;-53
2022/08/05 08:53:05;;;;;;;5.75;3.95;;;29.10;95.80;;;;;;4824080;29;20406;-52
2022/08/05 08:55:32;;;;;;;3.60;2.85;;;29.30;95.10;;;;;;4824280;29;20061;-51
2022/08/05 08:58:01;;;;;;;4.95;3.60;;;29.40;93.60;;;;;;4824224;29;20041;-53
2022/08/05 09:00:28;;;;;;;5.80;3.40;;;29.50;94.10;;;;;;4824165;29;20418;-52
2022/08/05 09:02:55;;;;;;;7.28;3.35;;;29.70;94.30;;;;;;4824170;29;20027;-53
2022/08/05 09:05:22;;;;;;;3.85;3.13;;;29.90;92.20;;;;;;4824144;29;20031;-51
2022/08/05 09:07:49;;;;;;;6.95;3.08;;;30.00;93.20;;;;;;4823459;29;20070;-54
2022/08/05 09:10:15;;;;;;;5.03;3.08;;;30.00;91.80;;;;;;4823282;29;20382;-53
2022/08/05 09:12:41;;;;;;;4.30;3.38;;;30.30;91.90;;;;;;4823372;29;20057;-53
2022/08/05 09:15:07;;;;;;;5.15;3.08;;;30.50;91.20;;;;;;4822777;29;20034;-51
2022/08/05 09:17:33;;;;;;;5.97;3.40;;;30.60;88.60;;;;;;4817080;29;20422;-50
2022/08/05 09:19:59;;;;;;;3.78;2.97;;;30.70;90.10;;;;;;4823010;29;20042;-51
2022/08/05 09:22:25;;;;;;;9.73;3.22;;;31.00;90.30;;;;;;4823724;29;20030;-52
2022/08/05 09:25:01;;;;;;;5.32;2.75;;;31.10;87.10;;;;;;4822269;29;20026;-53
2022/08/05 09:27:36;;;;;;;3.40;2.72;;;30.70;84.90;;;;;;4806927;29;20545;-56
2022/08/05 09:30:02;;;;;;;5.15;3.03;;;30.80;86.40;;;;;;4814690;29;20030;-56
2022/08/05 09:32:36;;;;;;;5.65;3.03;;;31.00;88.60;;;;;;4806260;29;20023;-52
2022/08/05 09:35:12;;;;;;;4.35;2.55;;;31.20;82.70;;;;;;4810497;29;20023;-54
2022/08/05 09:37:52;;;;;;;13.70;3.35;;;31.30;84.40;;;;;;4814058;29;20601;-53
2022/08/05 09:40:40;;;;;;;12.65;3.15;;;31.30;80.40;;;;;;4805663;29;20464;-53
2022/08/05 09:43:09;;;;;;;4.13;2.80;;;31.60;82.20;;;;;;4811496;29;20035;-51
2022/08/05 09:45:39;;;;;;;7.45;2.80;;;31.60;82.40;;;;;;4805330;29;20030;-50
2022/08/05 09:48:19;;;;;;;3.25;2.63;;;31.60;80.10;;;;;;4804178;29;20091;-53
2022/08/05 09:50:50;;;;;;;3.70;2.40;;;31.70;80.70;;;;;;4805234;29;20033;-52
2022/08/05 09:53:16;;;;;;;7.00;3.17;;;31.80;82.10;;;;;;4805362;29;20088;-51
2022/08/05 09:55:42;;;;;;;4.90;2.72;;;31.50;80.30;;;;;;4805627;29;20074;-53
2022/08/05 09:58:13;;;;;;;4.65;2.60;;;31.60;80.50;;;;;;4803864;29;20023;-53
2022/08/05 10:00:51;;;;;;;9.50;2.97;;;31.80;84.90;;;;;;4803801;29;20031;-51
2022/08/05 10:03:17;;;;;;;7.85;2.90;;;32.00;79.80;;;;;;4816087;29;20079;-51
2022/08/05 10:05:43;;;;;;;2.88;2.50;;;31.90;78.00;;;;;;4820616;29;20416;-51
2022/08/05 10:08:09;;;;;;;5.60;3.40;;;31.80;78.30;;;;;;4818648;29;20022;-54
2022/08/05 10:10:36;;;;;;;4.43;3.00;;;31.90;81.50;;;;;;4820516;29;20018;-50
2022/08/05 10:13:03;;;;;;;4.20;3.03;;;32.00;78.40;;;;;;4796664;29;20059;-53
2022/08/05 10:15:32;;;;;;;8.82;3.35;;;31.90;79.80;;;;;;4796224;29;20046;-51
2022/08/05 10:18:09;;;;;;;5.13;2.67;;;31.80;77.20;;;;;;4794216;29;20038;-52
2022/08/05 10:20:42;;;;;;;5.40;2.85;;;32.30;82.90;;;;;;4795181;29;20495;-55
2022/08/05 10:23:10;;;;;;;15.73;3.10;;;32.50;76.80;;;;;;4793327;29;20039;-53
2022/08/05 10:25:35;;;;;;;4.78;3.05;;;32.70;78.00;;;;;;4795382;29;20105;-51
2022/08/05 10:28:01;;;;;;;7.40;3.50;;;32.70;78.90;;;;;;4793533;29;20126;-55
2022/08/05 10:30:28;;;;;;;6.43;2.80;;;32.70;76.60;;;;;;4794208;29;20435;-51
2022/08/05 10:32:55;;;;;;;5.78;3.30;;;32.60;76.10;;;;;;4796105;29;20488;-50
2022/08/05 10:35:21;;;;;;;10.45;2.72;;;32.20;75.30;;;;;;4793382;29;20119;-50
2022/08/05 10:37:47;;;;;;;4.93;3.55;;;32.70;76.30;;;;;;4794124;29;20121;-51
2022/08/05 10:40:19;;;;;;;6.07;3.03;;;32.90;74.60;;;;;;4794347;29;20034;-51
2022/08/05 10:42:49;;;;;;;10.65;3.15;;;33.10;77.20;;;;;;4793840;29;20399;-53
2022/08/05 10:45:16;;;;;;;3.47;2.78;;;33.00;80.20;;;;;;4794967;29;20022;-51
2022/08/05 10:47:43;;;;;;;6.43;2.70;;;32.90;77.10;;;;;;4792948;29;20049;-53
2022/08/05 10:50:14;;;;;;;7.15;2.70;;;32.70;75.40;;;;;;4792543;29;20023;-53
2022/08/05 10:52:55;;;;;;;2.85;2.65;;;32.60;75.10;;;;;;4794049;29;20085;-53
2022/08/05 10:55:22;;;;;;;7.47;2.85;;;32.70;81.00;;;;;;4794327;29;20034;-52
2022/08/05 10:57:48;;;;;;;9.15;3.35;;;32.60;73.30;;;;;;4793780;29;20031;-55
2022/08/05 11:00:15;;;;;;;4.63;3.20;;;33.00;76.70;;;;;;4793815;29;20107;-55
2022/08/05 11:03:03;;;;;;;4.07;2.83;;;33.00;72.50;;;;;;4794308;29;20042;-54
2022/08/05 11:05:29;;;;;;;6.40;3.10;;;33.40;74.00;;;;;;4793575;29;20034;-53
2022/08/05 11:07:59;;;;;;;9.05;3.05;;;33.20;73.60;;;;;;4793674;29;20035;-53
2022/08/05 11:10:26;;;;;;;8.80;3.25;;;33.50;75.30;;;;;;4811583;29;20072;-53
2022/08/05 11:12:52;;;;;;;9.73;3.15;;;33.80;73.40;;;;;;4810884;29;20069;-52
2022/08/05 11:15:34;;;;;;;4.60;2.72;;;34.00;77.30;;;;;;4798344;29;20038;-53
2022/08/05 11:18:07;;;;;;;7.38;2.88;;;34.10;75.50;;;;;;4793390;29;20062;-52
2022/08/05 11:20:45;;;;;;;6.60;2.97;;;34.30;73.90;;;;;;4793137;29;20372;-53
2022/08/05 11:23:32;;;;;;;10.48;3.55;;;34.40;71.90;;;;;;4810375;29;20102;-53
2022/08/05 11:26:18;;;;;;;7.88;3.25;;;34.70;73.80;;;;;;4810519;29;20092;-51
2022/08/05 11:28:49;;;;;;;3.40;3.08;;;34.80;68.90;;;;;;4792746;29;20050;-53
2022/08/05 11:31:15;;;;;;;12.38;3.15;;;34.80;70.00;;;;;;4808262;29;20038;-52
2022/08/05 11:33:53;;;;;;;4.38;3.33;;;34.70;68.10;;;;;;4793234;29;20049;-52
2022/08/05 11:36:37;;;;;;;7.38;2.60;;;34.20;69.10;;;;;;4810513;29;20135;-55
2022/08/05 11:39:04;;;;;;;5.00;3.15;;;34.10;69.10;;;;;;4809404;29;20423;-50
2022/08/05 11:41:30;;;;;;;3.38;3.10;;;33.50;70.70;;;;;;4807941;29;20687;-52
2022/08/05 11:44:11;;;;;;;3.30;3.00;;;33.90;70.80;;;;;;4802709;29;20022;-50
2022/08/05 11:46:53;;;;;;;9.95;3.30;;;33.90;69.50;;;;;;4792482;29;20041;-52
2022/08/05 11:49:21;;;;;;;7.78;2.70;;;33.80;65.30;;;;;;4792896;29;20754;-51
2022/08/05 11:51:49;;;;;;;5.00;2.80;;;34.60;70.50;;;;;;4793453;29;20030;-50
2022/08/05 11:54:27;;;;;;;10.05;3.05;;;35.60;63.00;;;;;;4791770;29;20034;-51
2022/08/05 11:57:04;;;;;;;4.50;2.67;;;36.30;63.80;;;;;;4791764;29;20038;-50
2022/08/05 11:59:32;;;;;;;11.15;3.03;;;36.00;62.50;;;;;;4791233;29;20381;-52
2022/08/05 12:02:24;;;;;;;3.45;2.40;;;37.00;62.30;;;;;;4792500;29;20031;-51
2022/08/05 12:04:49;;;;;;;7.00;2.85;;;38.20;62.70;;;;;;4791930;29;20031;-52
2022/08/05 12:07:17;;;;;;;4.85;2.88;;;38.80;57.80;;;;;;4793035;29;20398;-52
2022/08/05 12:09:48;;;;;;;10.30;3.17;;;38.90;59.30;;;;;;4792641;29;20039;-51
2022/08/05 12:12:21;;;;;;;6.15;2.90;;;39.90;55.90;;;;;;4791927;29;20449;-52
2022/08/05 12:14:47;;;;;;;4.68;2.40;;;40.90;53.80;;;;;;4797277;29;20047;-52
2022/08/05 12:17:14;;;;;;;4.05;2.30;;;39.80;53.30;;;;;;4803034;29;20037;-51
2022/08/05 12:19:42;;;;;;;3.65;2.17;;;40.90;52.10;;;;;;4803189;29;20507;-52
2022/08/05 12:22:08;;;;;;;7.85;2.35;;;42.10;52.70;;;;;;4811614;29;20103;-52
2022/08/05 12:24:39;;;;;;;3.25;2.47;;;41.60;52.00;;;;;;4820744;29;20106;-55
2022/08/05 12:27:05;;;;;;;4.13;1.67;;;42.50;50.00;;;;;;4820809;29;20095;-50
2022/08/05 12:29:31;;;;;;;4.13;2.45;;;42.90;48.70;;;;;;4821290;29;20043;-52
2022/08/05 12:31:59;;;;;;;2.20;1.70;;;43.20;50.40;;;;;;4821006;29;20494;-54
2022/08/05 12:34:30;;;;;;;4.25;2.22;;;43.10;48.80;;;;;;4820293;29;20026;-54
2022/08/05 12:36:59;;;;;;;4.97;2.30;;;43.00;46.90;;;;;;4820706;29;20033;-53
2022/08/05 12:39:26;;;;;;;4.55;2.35;;;41.50;49.00;;;;;;4821050;29;20062;-53
2022/08/05 12:41:58;;;;;;;5.70;2.40;;;39.80;50.00;;;;;;4821139;29;20050;-50
2022/08/05 12:44:24;;;;;;;5.65;2.67;;;38.70;51.60;;;;;;4821165;29;20372;-50
2022/08/05 12:46:54;;;;;;;4.88;3.10;;;38.00;54.40;;;;;;4821004;29;20041;-53
2022/08/05 12:49:20;;;;;;;6.78;3.05;;;37.50;52.30;;;;;;4821237;29;20038;-51
2022/08/05 12:51:51;;;;;;;7.55;2.78;;;38.20;52.00;;;;;;4815191;29;20467;-53
2022/08/05 12:54:22;;;;;;;7.80;2.80;;;38.50;52.60;;;;;;4816613;29;20046;-54